Des Moines International Airport
Wednesday 12:54 AM
Weather Partly Cloudy
Temperature 63°
Dew Point 54°
Feels Like 63°
Relative Humidity 72
%
Visibility 10
mi
Pressure 1008.8
mb
Wind Direction E
Wind Speed 7
mph
Last Hour Precip 0.00
"
KDSM 180554Z 09006KT 10SM FEW030 BKN100 BKN180 17/12 A2979 RMK AO2 SLP082 T01720122 10217 20167 402440156 58016

Terminal Aerodrome Forecast (TAF)

Beginning Flight Rule Present Weather Sky Cover Ceiling Wind Visibility Wind Shear
5/18/22 12:20 AM
VFR
SCT 5000 BKN 8000OVC 12000 12000
ft
E (100) 7 >6
sm
1806/1906 10006KT P6SM SCT050 BKN080 OVC120
5/18/22 3:00 AM
MVFR
VCTS SCT 1500 OVC 2500 2500
ft
>6
sm
FM180800 VRB05KT P6SM VCTS SCT015CB OVC025
5/18/22 5:00 AM
MVFR
VCTS BKN 1200 OVC 2000 2000
ft
>6
sm
FM181000 VRB04KT P6SM VCTS BKN012CB OVC020
5/18/22 7:00 AM
MVFR
BKN 1000 OVC 2000 2000
ft
NNW (340) 6 >6
sm
FM181200 34005KT P6SM BKN010 OVC020
5/18/22 9:00 AM
VFR
SCT 2000 BKN 3000 3000
ft
NNW (330) 9 >6
sm
FM181400 33008KT P6SM SCT020 BKN030
5/18/22 12:00 PM
VFR
SCT 5000 5000
ft
NW (320) 10 >6
sm
FM181700 32009KT P6SM SCT050
5/18/22 8:00 PM
VFR
SCT 9000 9000
ft
>6
sm
FM190100 VRB05KT P6SM SCT090

Recent Observations

Time Present Weather Temp DP Feels RH% Vsby Pressure Ceiling Direction Speed Gust 1h Precip
12:54AM
VFR
63° 54° 63° 72
%
10
mi
1008.8
mb
10000
ft
E 7
mph
0.00"
KDSM 180554Z 09006KT 10SM FEW030 BKN100 BKN180 17/12 A2979 RMK AO2 SLP082 T01720122 10217 20167 402440156 58016
11:54PM
VFR
63° 55° 63° 75
%
10
mi
1009.5
mb
23000
ft
E 7
mph
0.00"
KDSM 180454Z 10006KT 10SM FEW060 SCT095 BKN230 17/13 A2981 RMK AO2 SLP090 OCNL LTGICCG DSNT SW CB DSNT SW T01720128
10:54PM
VFR
65° 57° 65° 76
%
10
mi
1010.8
mb
25000
ft
ESE 7
mph
0.00"
KDSM 180354Z 11006KT 10SM FEW060 BKN250 18/14 A2985 RMK AO2 SLP104 OCNL LTGICCG DSNT SW CB DSNT SW T01830139
9:54PM
VFR
66° 55° 66° 68
%
10
mi
1010.5
mb
25000
ft
ESE 7
mph
0.00"
KDSM 180254Z 12006KT 10SM FEW060 BKN250 19/13 A2984 RMK AO2 SLP101 OCNL LTGICCG DSNT SW-W CB DSNT SW-W T01890128 50020
8:54PM
VFR
69° 52° 69° 54
%
10
mi
1010.8
mb
24000
ft
ESE 7
mph
0.00"
KDSM 180154Z 12006KT 10SM FEW180 BKN240 21/11 A2985 RMK AO2 SLP102 CB DSNT SW-W T02060111
7:54PM
VFR
71° 54° 71° 55
%
10
mi
1009.5
mb
18000
ft
ESE 12
mph
0.00"
KDSM 180054Z 11010KT 10SM FEW120 BKN180 OVC220 22/12 A2981 RMK AO2 SLP089 T02170122
6:54PM
VFR
70° 54° 70° 57
%
10
mi
1008.5
mb
16000
ft
ESE 9
mph
0.00"
KDSM 172354Z 11008KT 10SM FEW110 BKN160 OVC200 21/12 A2978 RMK AO2 SLP081 60001 T02110122 10244 20206 58050
5:54PM
VFR
70° 58° 70° 65
%
10
mi
1010.8
mb
🔻
11000
ft
NE 8
mph
0.00"
KDSM 172254Z 05007KT 10SM FEW070 SCT090 BKN110 OVC200 21/14 A2985 RMK AO2 RAB09E40 PRESFR SLP104 P0001 T02110144
4:54PM
VFR
75° 50° 75° 41
%
10
mi
1012.9
mb
10000
ft
E 3
mph
0.00"
KDSM 172154Z 09003KT 10SM FEW048 BKN100 BKN120 OVC200 24/10 A2991 RMK AO2 SLP124 T02390100
3:54PM
VFR
75° 51° 75° 43
%
10
mi
1013.5
mb
15000
ft
NE 6
mph
0.00"
KDSM 172054Z 04005KT 10SM FEW070 SCT110 BKN150 OVC200 24/11 A2993 RMK AO2 SLP130 CB DSNT SW MOV E ACC SE-SW T02390106 55004
2:54PM
VFR
75° 50° 75° 41
%
10
mi
1012.5
mb
18000
ft
ENE 7
mph
0.00"
KDSM 171954Z 07006KT 10SM FEW120 SCT140 BKN180 BKN220 24/10 A2990 RMK AO2 SLP121 T02390100
1:54PM
VFR
75° 51° 75° 43
%
10
mi
1012.9
mb
14000
ft
ENE 13
mph
0.00"
KDSM 171854Z 06011KT 10SM FEW110 BKN140 BKN200 OVC250 24/11 A2991 RMK AO2 SLP123 T02390106
12:54PM
VFR
75° 50° 75° 41
%
10
mi
1013.9
mb
13000
ft
ENE 7
mph
0.00"
KDSM 171754Z 07006KT 10SM FEW100 BKN130 OVC250 24/10 A2994 RMK AO2 SLP134 T02390100 10239 20156 58015
11:54AM
VFR
73° 50° 73° 44
%
10
mi
1014.6
mb
25000
ft
ENE 8
mph
0.00"
KDSM 171654Z 07007KT 060V130 10SM FEW060 FEW120 FEW160 BKN250 23/10 A2996 RMK AO2 SLP140 T02280100
10:54AM
VFR
69° 48° 69° 47
%
10
mi
1015.2
mb
25000
ft
ESE 8
mph
0.00"
KDSM 171554Z 11007KT 10SM FEW110 FEW140 SCT160 BKN250 21/09 A2998 RMK AO2 SLP145 VIRGA ACC ALQDS T02060089
9:54AM
VFR
66° 45° 66° 47
%
10
mi
1015.6
mb
14000
ft
ENE 7
mph
0.00"
KDSM 171454Z 07006KT 10SM FEW010 FEW110 BKN140 OVC250 19/07 A2999 RMK AO2 SLP150 FU FEW010 T01890072 53007
8:54AM
VFR
66° 42° 66° 42
%
10
mi
1015.2
mb
25000
ft
ESE 9
mph
0.00"
KDSM 171354Z 11008KT 10SM FEW110 SCT150 BKN250 19/06 A2998 RMK AO2 SLP147 ACC ALQDS T01890056
7:54AM
VFR
64° 40° 64° 41
%
10
mi
1014.9
mb
25000
ft
E 7
mph
0.00"
KDSM 171254Z 10006KT 10SM FEW120 BKN250 18/04 A2997 RMK AO2 SLP144 T01780044
6:54AM
VFR
60° 40° 60° 47
%
10
mi
1014.9
mb
25000
ft
E 8
mph
0.00"
KDSM 171154Z 08007KT 10SM FEW110 BKN250 16/04 A2997 RMK AO2 SLP142 T01560044 10189 20156 50004
5:54AM
VFR
61° 40° 61° 46
%
10
mi
1014.9
mb
25000
ft
NE 8
mph
0.00"
KDSM 171054Z 05007KT 10SM FEW030 SCT100 BKN250 16/04 A2997 RMK AO2 SLP144 T01610044
Click here to show this page without METARs/TAFs included